createdAt,value
2018-09-27T00:00:43.451Z,99.90
2018-09-27T00:03:12.008Z,99.90
2018-09-27T00:05:40.534Z,99.90
2018-09-27T00:08:08.970Z,99.90
2018-09-27T00:10:37.423Z,99.90
2018-09-27T00:13:05.881Z,99.90
2018-09-27T00:15:34.304Z,99.90
2018-09-27T00:18:02.827Z,99.90
2018-09-27T00:20:31.371Z,99.90
2018-09-27T00:22:59.799Z,99.90
2018-09-27T00:25:28.233Z,99.90
2018-09-27T00:27:56.654Z,99.90
2018-09-27T00:30:25.089Z,99.90
2018-09-27T00:32:53.515Z,99.90
2018-09-27T00:35:22.114Z,99.90
2018-09-27T00:37:50.839Z,99.90
2018-09-27T00:40:19.425Z,99.90
2018-09-27T00:42:47.937Z,99.90
2018-09-27T00:45:16.465Z,99.90
2018-09-27T00:47:44.942Z,99.90
2018-09-27T00:50:13.406Z,99.90
2018-09-27T00:52:41.912Z,99.90
2018-09-27T00:55:10.386Z,99.90
2018-09-27T00:57:38.926Z,99.90
2018-09-27T01:00:08.038Z,99.90
2018-09-27T01:02:36.616Z,99.90
2018-09-27T01:05:05.210Z,99.90
2018-09-27T01:07:33.634Z,99.90
2018-09-27T01:10:02.050Z,99.90
2018-09-27T01:12:30.448Z,99.90
2018-09-27T01:14:58.888Z,99.90
2018-09-27T01:17:27.376Z,99.90
2018-09-27T01:19:55.808Z,99.90
2018-09-27T01:22:24.220Z,99.90
2018-09-27T01:24:52.652Z,99.90
2018-09-27T01:27:21.078Z,99.90
2018-09-27T01:29:49.499Z,99.90
2018-09-27T01:32:17.972Z,99.90
2018-09-27T01:34:46.366Z,99.90
2018-09-27T01:37:14.786Z,99.90
2018-09-27T01:39:43.207Z,99.90
2018-09-27T01:42:11.622Z,99.90
2018-09-27T01:44:40.045Z,99.90
2018-09-27T01:47:08.522Z,99.90
2018-09-27T01:49:36.949Z,99.90
2018-09-27T01:52:05.695Z,99.90
2018-09-27T01:54:34.208Z,99.90
2018-09-27T01:57:02.633Z,99.90
2018-09-27T01:59:31.063Z,99.90
2018-09-27T02:01:59.482Z,99.90
2018-09-27T02:04:30.650Z,99.90
2018-09-27T02:06:59.156Z,99.90
2018-09-27T02:09:27.592Z,99.90
2018-09-27T02:11:56.175Z,99.90
2018-09-27T02:14:24.836Z,99.90
2018-09-27T02:16:53.311Z,99.90
2018-09-27T02:19:21.768Z,99.90
2018-09-27T02:21:50.325Z,99.90
2018-09-27T02:24:18.793Z,99.90
2018-09-27T02:26:47.214Z,99.90
2018-09-27T02:29:15.633Z,99.90
2018-09-27T02:31:44.103Z,99.90
2018-09-27T02:34:12.525Z,99.90
2018-09-27T02:36:40.967Z,99.90
2018-09-27T02:39:10.356Z,99.90
2018-09-27T02:41:39.456Z,99.90
2018-09-27T02:44:08.368Z,99.90
2018-09-27T02:46:36.889Z,99.90
2018-09-27T02:49:05.301Z,99.90
2018-09-27T02:51:33.745Z,99.90
2018-09-27T02:54:02.279Z,99.90
2018-09-27T02:56:30.713Z,99.90
2018-09-27T02:58:59.153Z,99.90
2018-09-27T03:01:27.583Z,99.90
2018-09-27T03:03:56.003Z,99.90
2018-09-27T03:06:24.447Z,99.90
2018-09-27T03:08:52.882Z,99.90
2018-09-27T03:11:21.389Z,99.90
2018-09-27T03:13:49.878Z,99.90
2018-09-27T03:16:18.353Z,99.90
2018-09-27T03:18:46.848Z,99.90
2018-09-27T03:21:15.278Z,99.90
2018-09-27T03:23:43.720Z,99.90
2018-09-27T03:26:12.151Z,99.90
2018-09-27T03:28:40.602Z,99.90
2018-09-27T03:31:09.161Z,99.90
2018-09-27T03:33:37.582Z,99.90
2018-09-27T03:36:06.020Z,99.90
2018-09-27T03:38:34.472Z,99.90
2018-09-27T03:41:02.980Z,99.90
2018-09-27T03:43:31.409Z,99.90
2018-09-27T03:45:59.841Z,99.90
2018-09-27T03:48:28.275Z,99.90
2018-09-27T03:50:56.715Z,99.90
2018-09-27T03:53:25.147Z,99.90
2018-09-27T03:55:53.575Z,99.90
2018-09-27T03:58:21.997Z,99.90
2018-09-27T04:00:50.541Z,99.90
2018-09-27T04:03:19.046Z,99.90
2018-09-27T04:05:47.447Z,99.90
2018-09-27T04:08:15.881Z,99.90
2018-09-27T04:10:44.325Z,99.90
2018-09-27T04:13:12.788Z,99.90
2018-09-27T04:15:41.298Z,99.90
2018-09-27T04:18:09.727Z,99.90
2018-09-27T04:20:43.367Z,99.90
2018-09-27T04:23:11.893Z,99.90
2018-09-27T04:25:40.363Z,99.90
2018-09-27T04:28:08.799Z,99.90
2018-09-27T04:30:37.243Z,99.90
2018-09-27T04:33:05.809Z,99.90
2018-09-27T04:35:34.339Z,99.90
2018-09-27T04:38:02.795Z,99.90
2018-09-27T04:40:31.261Z,99.90
2018-09-27T04:42:59.944Z,99.90
2018-09-27T04:45:30.537Z,99.90
2018-09-27T04:47:59.003Z,99.90
2018-09-27T04:50:27.445Z,99.90
2018-09-27T04:52:57.499Z,99.90
2018-09-27T04:55:28.163Z,99.90
2018-09-27T04:57:56.689Z,99.90
2018-09-27T05:00:25.127Z,99.90
2018-09-27T05:03:10.080Z,99.90
2018-09-27T05:05:38.618Z,99.90
2018-09-27T05:08:07.159Z,99.90
2018-09-27T05:10:35.599Z,99.90
2018-09-27T05:13:04.369Z,99.90
2018-09-27T05:15:32.828Z,99.90
2018-09-27T05:18:01.245Z,99.90
2018-09-27T05:20:29.710Z,99.90
2018-09-27T05:23:00.684Z,99.90
2018-09-27T05:25:29.125Z,99.90
2018-09-27T05:27:57.639Z,99.90
2018-09-27T05:30:26.121Z,99.90
2018-09-27T05:32:54.642Z,99.90
2018-09-27T05:35:23.111Z,99.90
2018-09-27T05:37:51.608Z,99.90
2018-09-27T05:40:20.089Z,99.90
2018-09-27T05:42:48.571Z,99.90
2018-09-27T05:45:17.081Z,99.90
2018-09-27T05:47:45.510Z,99.90
2018-09-27T05:50:13.928Z,99.90
2018-09-27T05:52:42.359Z,99.90
2018-09-27T05:55:10.774Z,99.90
2018-09-27T05:57:39.243Z,99.90
2018-09-27T06:00:07.723Z,99.90
2018-09-27T06:02:36.146Z,99.90
2018-09-27T06:05:04.680Z,99.90
2018-09-27T06:07:33.260Z,99.90
2018-09-27T06:10:01.730Z,99.90
2018-09-27T06:12:30.178Z,99.90
2018-09-27T06:14:58.599Z,99.90
2018-09-27T06:17:27.127Z,99.90
2018-09-27T06:19:55.618Z,99.90
2018-09-27T06:22:24.007Z,99.90
2018-09-27T06:24:52.435Z,99.90
2018-09-27T06:27:21.881Z,99.90
2018-09-27T06:29:50.287Z,99.90
2018-09-27T06:32:19.295Z,99.90
2018-09-27T06:34:47.721Z,99.90
2018-09-27T06:37:16.147Z,99.90
2018-09-27T06:39:44.585Z,99.90
2018-09-27T06:42:13.071Z,99.90
2018-09-27T06:44:41.574Z,99.90
2018-09-27T06:47:09.980Z,99.90
2018-09-27T06:49:38.397Z,99.90
2018-09-27T06:52:06.829Z,99.90
2018-09-27T06:54:35.264Z,99.90
2018-09-27T06:57:03.765Z,99.90
2018-09-27T06:59:32.188Z,99.90
2018-09-27T07:02:00.613Z,99.90
2018-09-27T07:04:29.100Z,99.90
2018-09-27T07:06:57.665Z,99.90
2018-09-27T07:09:26.085Z,99.90
2018-09-27T07:11:54.593Z,99.90
2018-09-27T07:14:23.138Z,99.90
2018-09-27T07:16:51.669Z,99.90
2018-09-27T07:19:20.119Z,99.90
2018-09-27T07:21:48.535Z,99.90
2018-09-27T07:24:16.947Z,99.90
2018-09-27T07:26:45.482Z,99.90
2018-09-27T07:29:13.830Z,99.90
2018-09-27T07:31:42.853Z,99.90
2018-09-27T07:34:11.342Z,99.90
2018-09-27T07:36:39.805Z,99.90
2018-09-27T07:39:10.065Z,99.90
2018-09-27T07:41:38.949Z,99.90
2018-09-27T07:44:07.370Z,99.90
2018-09-27T07:46:36.222Z,99.90
2018-09-27T07:49:04.706Z,99.90
2018-09-27T07:51:33.150Z,99.90
2018-09-27T07:54:01.587Z,99.90
2018-09-27T07:56:30.011Z,99.90
2018-09-27T07:58:59.473Z,99.90
2018-09-27T08:01:27.916Z,99.90
2018-09-27T08:03:56.343Z,99.90
2018-09-27T08:06:24.788Z,99.90
2018-09-27T08:08:53.240Z,99.90
2018-09-27T08:11:21.901Z,99.90
2018-09-27T08:13:50.202Z,99.90
2018-09-27T08:16:18.734Z,99.90
2018-09-27T08:18:47.302Z,99.90
2018-09-27T08:21:15.919Z,99.90
2018-09-27T08:23:44.297Z,99.90
2018-09-27T08:26:12.871Z,99.90
2018-09-27T08:28:41.467Z,99.90
2018-09-27T08:31:10.173Z,99.90
2018-09-27T08:33:38.613Z,99.90
2018-09-27T08:36:07.122Z,99.90
2018-09-27T08:38:35.713Z,99.90
2018-09-27T08:41:04.203Z,99.90
2018-09-27T08:43:32.843Z,99.90
2018-09-27T08:46:01.292Z,99.90
2018-09-27T08:48:29.736Z,99.90
2018-09-27T08:50:58.261Z,99.90
2018-09-27T08:53:26.707Z,99.90
2018-09-27T08:55:55.187Z,99.90
2018-09-27T08:58:23.661Z,99.90
2018-09-27T09:00:52.100Z,99.90
2018-09-27T09:03:20.575Z,99.90
2018-09-27T09:05:48.986Z,99.90
2018-09-27T09:08:17.434Z,99.90
2018-09-27T09:10:45.876Z,99.90
2018-09-27T09:13:14.317Z,99.90
2018-09-27T09:15:43.000Z,99.90
2018-09-27T09:18:11.432Z,99.90
2018-09-27T09:20:40.285Z,99.20
2018-09-27T09:23:08.773Z,98.00
2018-09-27T09:25:37.267Z,96.70
2018-09-27T09:28:06.128Z,96.70
2018-09-27T09:30:34.602Z,96.80
2018-09-27T09:33:03.122Z,96.80
2018-09-27T09:35:31.604Z,96.50
2018-09-27T09:38:00.141Z,96.70
2018-09-27T09:40:28.607Z,96.10
2018-09-27T09:42:57.117Z,96.00
2018-09-27T09:45:25.622Z,96.00
2018-09-27T09:47:54.111Z,95.50
2018-09-27T09:50:22.562Z,95.00
2018-09-27T09:52:51.029Z,94.30
2018-09-27T09:55:19.469Z,94.20
2018-09-27T09:57:47.976Z,93.70
2018-09-27T10:00:16.430Z,93.00
2018-09-27T10:02:44.935Z,92.40
2018-09-27T10:05:13.385Z,90.40
2018-09-27T10:07:41.858Z,86.90
2018-09-27T10:10:10.286Z,86.20
2018-09-27T10:12:38.733Z,84.00
2018-09-27T10:15:07.212Z,82.90
2018-09-27T10:17:35.702Z,84.10
2018-09-27T10:20:05.445Z,83.00
2018-09-27T10:22:33.901Z,83.10
2018-09-27T10:25:02.367Z,84.40
2018-09-27T10:27:30.817Z,84.60
2018-09-27T10:29:59.276Z,83.20
2018-09-27T10:32:27.835Z,81.80
2018-09-27T10:34:56.286Z,83.60
2018-09-27T10:37:24.749Z,82.10
2018-09-27T10:39:53.268Z,81.70
2018-09-27T10:42:21.730Z,80.90
2018-09-27T10:44:50.245Z,79.20
2018-09-27T10:47:18.643Z,78.50
2018-09-27T10:49:47.069Z,80.00
2018-09-27T10:52:15.513Z,79.60
2018-09-27T10:54:43.945Z,77.70
2018-09-27T10:57:12.439Z,76.90
2018-09-27T10:59:40.930Z,75.90
2018-09-27T11:02:09.363Z,75.30
2018-09-27T11:04:37.831Z,74.50
2018-09-27T11:07:06.467Z,74.50
2018-09-27T11:09:34.919Z,73.00
2018-09-27T11:12:03.421Z,71.90
2018-09-27T11:14:31.867Z,71.10
2018-09-27T11:17:00.357Z,70.40
2018-09-27T11:19:28.865Z,68.60
2018-09-27T11:21:57.485Z,68.60
2018-09-27T11:24:25.893Z,67.90
2018-09-27T11:26:54.411Z,66.70
2018-09-27T11:29:28.082Z,65.60
2018-09-27T11:32:01.760Z,65.60
2018-09-27T11:34:30.202Z,64.20
2018-09-27T11:36:58.663Z,64.50
2018-09-27T11:39:27.123Z,60.60
2018-09-27T11:41:55.570Z,61.80
2018-09-27T11:44:24.030Z,61.40
2018-09-27T11:46:52.505Z,59.80
2018-09-27T11:49:21.016Z,59.70
2018-09-27T11:51:49.424Z,62.40
2018-09-27T11:54:17.939Z,61.70
2018-09-27T11:56:47.069Z,63.30
2018-09-27T11:59:15.515Z,63.70
2018-09-27T12:01:44.113Z,62.90
2018-09-27T12:04:12.583Z,62.30
2018-09-27T12:06:41.078Z,63.70
2018-09-27T12:09:11.250Z,63.10
2018-09-27T12:11:39.701Z,63.10
2018-09-27T12:14:08.899Z,62.70
2018-09-27T12:16:37.392Z,63.40
2018-09-27T12:19:05.829Z,63.80
2018-09-27T12:21:34.281Z,62.40
2018-09-27T12:24:02.732Z,61.90
2018-09-27T12:26:31.170Z,60.30
2018-09-27T12:28:59.615Z,59.70
2018-09-27T12:31:28.137Z,60.00
2018-09-27T12:33:56.617Z,60.50
2018-09-27T12:36:25.048Z,58.70
2018-09-27T12:38:53.511Z,59.50
2018-09-27T12:41:21.951Z,57.50
2018-09-27T12:43:50.456Z,57.30
2018-09-27T12:46:18.959Z,58.80
2018-09-27T12:48:47.454Z,59.20
2018-09-27T12:51:15.952Z,59.60
2018-09-27T12:53:44.295Z,58.30
2018-09-27T12:56:12.747Z,54.90
2018-09-27T12:58:41.279Z,52.90
2018-09-27T13:01:09.763Z,50.70
2018-09-27T13:03:38.093Z,51.70
2018-09-27T13:06:06.598Z,51.40
2018-09-27T13:08:35.114Z,53.30
2018-09-27T13:11:04.506Z,52.50
2018-09-27T13:13:33.049Z,52.60
2018-09-27T13:16:01.457Z,52.20
2018-09-27T13:18:29.917Z,50.20
2018-09-27T13:20:58.601Z,49.90
2018-09-27T13:23:27.025Z,49.50
2018-09-27T13:25:55.530Z,49.40
2018-09-27T13:28:24.025Z,47.80
2018-09-27T13:30:52.497Z,46.30
2018-09-27T13:33:21.011Z,47.10
2018-09-27T13:35:49.437Z,48.20
2018-09-27T13:38:18.365Z,48.90
2018-09-27T13:40:46.812Z,48.10
2018-09-27T13:43:15.245Z,48.10
2018-09-27T13:45:43.679Z,50.20
2018-09-27T13:48:13.138Z,48.00
2018-09-27T13:50:41.584Z,47.30
2018-09-27T13:53:10.023Z,47.50
2018-09-27T13:55:38.453Z,48.00
2018-09-27T13:58:06.933Z,48.80
2018-09-27T14:00:35.480Z,47.50
2018-09-27T14:03:03.979Z,48.50
2018-09-27T14:05:32.517Z,47.70
2018-09-27T14:08:01.043Z,47.70
2018-09-27T14:10:29.507Z,47.30
2018-09-27T14:12:57.937Z,47.40
2018-09-27T14:15:26.371Z,47.70
2018-09-27T14:17:54.829Z,48.30
2018-09-27T14:20:23.292Z,49.00
2018-09-27T14:22:51.746Z,50.10
2018-09-27T14:25:20.222Z,49.90
2018-09-27T14:27:48.670Z,50.30
2018-09-27T14:30:17.171Z,50.20
2018-09-27T14:32:45.615Z,50.40
2018-09-27T14:35:14.056Z,50.40
2018-09-27T14:37:42.500Z,50.70
2018-09-27T14:40:10.997Z,50.80
2018-09-27T14:42:39.868Z,51.50
2018-09-27T14:45:08.372Z,49.90
2018-09-27T14:47:36.957Z,49.10
2018-09-27T14:50:05.534Z,49.20
2018-09-27T14:52:34.041Z,49.80
2018-09-27T14:55:02.487Z,50.00
2018-09-27T14:57:31.735Z,50.20
2018-09-27T15:00:00.583Z,49.80
2018-09-27T15:02:29.028Z,50.90
2018-09-27T15:04:57.478Z,50.40
2018-09-27T15:07:25.916Z,50.50
2018-09-27T15:09:54.393Z,50.70
2018-09-27T15:12:22.901Z,51.00
2018-09-27T15:14:52.026Z,49.90
2018-09-27T15:17:20.456Z,50.40
2018-09-27T15:19:48.868Z,49.50
2018-09-27T15:22:17.555Z,49.10
2018-09-27T15:24:46.048Z,49.20
2018-09-27T15:27:14.480Z,49.40
2018-09-27T15:29:42.919Z,49.60
2018-09-27T15:32:11.359Z,49.20
2018-09-27T15:34:39.791Z,49.20
2018-09-27T15:37:08.345Z,49.50
2018-09-27T15:39:36.779Z,48.80
2018-09-27T15:42:05.231Z,48.70
2018-09-27T15:44:33.725Z,48.30
2018-09-27T15:47:02.212Z,47.80
2018-09-27T15:49:30.658Z,47.50
2018-09-27T15:51:59.098Z,47.60
2018-09-27T15:54:27.820Z,47.50
2018-09-27T15:56:56.265Z,48.20
2018-09-27T15:59:24.756Z,48.70
2018-09-27T16:01:53.219Z,49.30
2018-09-27T16:04:21.693Z,49.40
2018-09-27T16:06:50.178Z,49.50
2018-09-27T16:09:18.881Z,49.60
2018-09-27T16:11:47.385Z,49.00
2018-09-27T16:14:15.866Z,48.60
2018-09-27T16:16:44.300Z,48.30
2018-09-27T16:19:12.841Z,47.40
2018-09-27T16:21:41.404Z,47.60
2018-09-27T16:24:09.845Z,47.00
2018-09-27T16:26:38.310Z,46.20
2018-09-27T16:29:07.585Z,46.20
2018-09-27T16:31:36.009Z,46.50
2018-09-27T16:34:04.669Z,46.50
2018-09-27T16:36:33.545Z,46.30
2018-09-27T16:39:02.013Z,46.70
2018-09-27T16:41:30.482Z,46.90
2018-09-27T16:43:58.912Z,47.20
2018-09-27T16:46:27.381Z,47.30
2018-09-27T16:48:55.876Z,47.40
2018-09-27T16:51:24.336Z,47.70
2018-09-27T16:53:52.780Z,48.00
2018-09-27T16:56:21.267Z,48.10
2018-09-27T16:58:49.722Z,48.20
2018-09-27T17:01:18.411Z,48.50
2018-09-27T17:03:47.341Z,48.50
2018-09-27T17:06:15.787Z,48.30
2018-09-27T17:08:44.222Z,48.40
2018-09-27T17:11:13.259Z,48.80
2018-09-27T17:13:41.654Z,49.00
2018-09-27T17:16:10.447Z,49.50
2018-09-27T17:18:38.948Z,50.10
2018-09-27T17:21:07.443Z,50.50
2018-09-27T17:23:36.047Z,51.10
2018-09-27T17:26:04.473Z,52.00
2018-09-27T17:28:32.958Z,52.80
2018-09-27T17:31:01.390Z,53.30
2018-09-27T17:33:29.868Z,54.00
2018-09-27T17:35:58.517Z,54.60
2018-09-27T17:38:26.943Z,55.60
2018-09-27T17:40:55.997Z,56.20
2018-09-27T17:43:24.497Z,56.60
2018-09-27T17:45:53.068Z,56.80
2018-09-27T17:48:21.550Z,56.90
2018-09-27T17:50:50.005Z,56.90
2018-09-27T17:53:18.540Z,57.10
2018-09-27T17:55:46.885Z,57.80
2018-09-27T17:58:15.328Z,58.80
2018-09-27T18:00:43.805Z,59.90
2018-09-27T18:03:12.375Z,61.30
2018-09-27T18:05:40.860Z,62.00
2018-09-27T18:08:09.291Z,63.50
2018-09-27T18:10:38.437Z,64.70
2018-09-27T18:13:08.141Z,67.20
2018-09-27T18:15:36.591Z,69.00
2018-09-27T18:18:05.070Z,70.10
2018-09-27T18:20:33.523Z,70.60
2018-09-27T18:23:01.977Z,71.60
2018-09-27T18:25:30.469Z,72.00
2018-09-27T18:27:58.937Z,72.00
2018-09-27T18:30:28.201Z,72.20
2018-09-27T18:32:56.666Z,72.60
2018-09-27T18:35:25.092Z,73.40
2018-09-27T18:37:53.674Z,74.30
2018-09-27T18:40:22.024Z,75.00
2018-09-27T18:42:50.488Z,76.80
2018-09-27T18:45:18.992Z,78.20
2018-09-27T18:47:47.518Z,79.50
2018-09-27T18:50:16.250Z,80.30
2018-09-27T18:52:44.702Z,81.10
2018-09-27T18:55:13.160Z,82.40
2018-09-27T18:57:41.618Z,82.80
2018-09-27T19:00:10.074Z,82.90
2018-09-27T19:02:38.531Z,83.90
2018-09-27T19:05:07.005Z,84.70
2018-09-27T19:07:35.482Z,84.70
2018-09-27T19:10:04.306Z,85.30
2018-09-27T19:12:32.745Z,86.00
2018-09-27T19:15:01.181Z,87.40
2018-09-27T19:17:30.055Z,87.90
2018-09-27T19:19:58.491Z,88.80
2018-09-27T19:22:26.944Z,89.60
2018-09-27T19:24:55.399Z,90.00
2018-09-27T19:27:23.857Z,89.90
2018-09-27T19:29:52.293Z,89.50
2018-09-27T19:32:20.809Z,90.00
2018-09-27T19:34:49.263Z,90.60
2018-09-27T19:37:17.713Z,91.20
2018-09-27T19:39:46.153Z,91.60
2018-09-27T19:42:14.607Z,91.90
2018-09-27T19:44:43.051Z,92.00
2018-09-27T19:47:11.660Z,92.00
2018-09-27T19:49:40.084Z,92.30
2018-09-27T19:52:08.540Z,92.50
2018-09-27T19:54:38.004Z,93.20
2018-09-27T19:57:06.451Z,93.30
2018-09-27T19:59:34.927Z,94.10
2018-09-27T20:02:03.405Z,93.80
2018-09-27T20:04:31.937Z,94.00
2018-09-27T20:07:00.467Z,94.40
2018-09-27T20:09:28.918Z,94.60
2018-09-27T20:11:57.432Z,94.70
2018-09-27T20:14:25.952Z,94.90
2018-09-27T20:16:54.456Z,95.30
2018-09-27T20:19:22.933Z,95.30
2018-09-27T20:21:51.432Z,95.40
2018-09-27T20:24:19.876Z,95.60
2018-09-27T20:26:48.323Z,96.20
2018-09-27T20:29:16.774Z,96.30
2018-09-27T20:31:45.246Z,96.30
2018-09-27T20:34:13.790Z,96.50
2018-09-27T20:36:42.653Z,97.00
2018-09-27T20:39:11.962Z,97.20
2018-09-27T20:41:40.490Z,97.70
2018-09-27T20:44:09.656Z,97.90
2018-09-27T20:46:38.812Z,98.10
2018-09-27T20:49:07.406Z,98.20
2018-09-27T20:51:36.010Z,98.40
2018-09-27T20:54:04.498Z,98.60
2018-09-27T20:56:33.010Z,99.00
2018-09-27T20:59:01.472Z,99.20
2018-09-27T21:01:29.938Z,99.00
2018-09-27T21:03:58.412Z,98.80
2018-09-27T21:06:26.862Z,98.80
2018-09-27T21:08:55.334Z,98.90
2018-09-27T21:11:23.802Z,99.10
2018-09-27T21:13:52.354Z,99.20
2018-09-27T21:16:20.815Z,99.40
2018-09-27T21:18:49.290Z,99.40
2018-09-27T21:21:17.716Z,99.30
2018-09-27T21:23:46.165Z,99.10
2018-09-27T21:26:15.112Z,99.00
2018-09-27T21:28:43.577Z,99.20
2018-09-27T21:31:12.097Z,99.20
2018-09-27T21:33:41.123Z,99.20
2018-09-27T21:36:11.343Z,99.40
2018-09-27T21:38:39.803Z,99.50
2018-09-27T21:41:08.811Z,99.90
2018-09-27T21:43:37.255Z,99.80
2018-09-27T21:46:06.723Z,99.90
2018-09-27T21:48:35.167Z,99.90
2018-09-27T21:51:03.619Z,99.90
2018-09-27T21:53:32.065Z,99.90
2018-09-27T21:56:00.947Z,99.30
2018-09-27T21:58:29.393Z,99.40
2018-09-27T22:00:57.863Z,99.60
2018-09-27T22:03:26.345Z,99.80
2018-09-27T22:05:54.801Z,99.80
2018-09-27T22:08:23.339Z,99.90
2018-09-27T22:10:51.989Z,99.90
2018-09-27T22:13:27.048Z,99.90
2018-09-27T22:15:55.505Z,99.90
2018-09-27T22:18:23.965Z,99.90
2018-09-27T22:20:52.420Z,99.90
2018-09-27T22:23:20.866Z,99.90
2018-09-27T22:25:49.296Z,99.90
2018-09-27T22:28:17.818Z,99.70
2018-09-27T22:30:46.260Z,99.90
2018-09-27T22:33:14.740Z,99.90
2018-09-27T22:35:43.173Z,99.90
2018-09-27T22:38:11.594Z,99.90
2018-09-27T22:40:40.160Z,99.90
2018-09-27T22:43:08.640Z,99.90
2018-09-27T22:45:37.176Z,99.90
2018-09-27T22:48:05.975Z,99.90
2018-09-27T22:50:34.430Z,99.90
2018-09-27T22:53:02.880Z,99.90
2018-09-27T22:55:31.370Z,99.90
2018-09-27T22:57:59.811Z,99.90
2018-09-27T23:00:28.245Z,99.90
2018-09-27T23:02:56.713Z,99.90
2018-09-27T23:05:25.144Z,99.90
2018-09-27T23:07:53.847Z,99.90
2018-09-27T23:10:22.267Z,99.90
2018-09-27T23:12:50.794Z,99.90
2018-09-27T23:15:19.261Z,99.90
2018-09-27T23:17:47.717Z,99.90
2018-09-27T23:20:16.173Z,99.90
2018-09-27T23:22:44.755Z,99.90
2018-09-27T23:25:13.352Z,99.90
2018-09-27T23:27:41.789Z,99.90
2018-09-27T23:30:10.225Z,99.90
2018-09-27T23:32:38.643Z,99.90
2018-09-27T23:35:07.095Z,99.90
2018-09-27T23:37:35.667Z,99.90
2018-09-27T23:40:04.111Z,99.90
2018-09-27T23:42:32.663Z,99.90
2018-09-27T23:45:01.119Z,99.90
2018-09-27T23:47:29.749Z,99.90
2018-09-27T23:49:58.441Z,99.90
2018-09-27T23:52:26.899Z,99.90
2018-09-27T23:54:55.713Z,99.90
2018-09-27T23:57:24.515Z,99.90
2018-09-27T23:59:53.083Z,99.90
